Accueil
METAR-TAF:

METAR-TAF

Aéroports :

Bornemouth, Angleterre

Aéroport de Bournemouth

latitude: 50-47N, longitude: 001-50W, altitude: 11 m

Observation

Le bulletin a été fait il y a 40 minutes, à 20:50 UTC
Vent 4 kt de nord/nord-est
Température 4°C
Humidité 75%
Pression 1021 hPa
Visibilité 10 km ou plus
Quelques nuages à une hauteur de 4800 ft

METAR: EGHH 262050Z 03004KT 9999 FEW048 04/M00 Q1021

Heure: 22:30 (21:30 UTC)

Prévision

Le bulletin a été fait il y a 1 heure et 32 minutes, à 19:58 UTC
Prévision valable du 26 à 21 UTC au 27 à 06 UTC
Vent 4 kt de nord/nord-est
Visibilité 10 km ou plus
Quelques nuages à une hauteur de 4500 ft
Temporairement
du 27 à 00 UTC au 27 à 06 UTC
Visibilité: 8000 m
Probabilité 30% :
Temporairement
du 27 à 00 UTC au 27 à 06 UTC
Visibilité: 4000 m
brume

TAF: EGHH 261958Z 2621/2706 02004KT 9999 FEW045 TEMPO 2700/2706 8000 PROB30 TEMPO 2700/2706 4000 BR

Observations et prévisions météorologiques de plus de 4000 aéroports (messages METAR et TAF).

Les stations disponibles sont représentées par des disques jaunes et rouges sur la carte.

Passer la souris dessus pour voir le nom de la station.

Cliquer dessus pour voir les observations et prévisions météorologiques.

Pour changer de carte: cliquez sur les boutons verts avec une croix noire pour zoomer, sur le bouton vert avec un tiret pour effectuer un zoom arrière, ou sur les flèches vertes pour les cartes adjacentes.


METAR-TAF: